createdAt,value
2019-06-10T00:01:52.720Z,6.30
2019-06-10T00:04:18.592Z,6.00
2019-06-10T00:06:44.446Z,6.20
2019-06-10T00:09:11.823Z,8.73
2019-06-10T00:11:38.030Z,6.40
2019-06-10T00:14:04.555Z,6.00
2019-06-10T00:16:31.577Z,6.77
2019-06-10T00:18:57.974Z,6.60
2019-06-10T00:21:23.890Z,5.80
2019-06-10T00:23:51.764Z,7.17
2019-06-10T00:26:17.817Z,8.23
2019-06-10T00:28:43.684Z,7.70
2019-06-10T00:31:11.463Z,5.60
2019-06-10T00:33:37.283Z,5.87
2019-06-10T00:36:05.849Z,7.60
2019-06-10T00:38:31.842Z,5.87
2019-06-10T00:40:57.962Z,6.23
2019-06-10T00:43:23.823Z,5.77
2019-06-10T00:45:51.315Z,7.27
2019-06-10T00:48:26.059Z,5.50
2019-06-10T00:50:45.155Z,6.43
2019-06-10T00:53:14.002Z,5.97
2019-06-10T00:55:41.150Z,7.97
2019-06-10T00:58:07.561Z,5.77
2019-06-10T01:00:33.609Z,7.00
2019-06-10T01:03:01.060Z,6.60
2019-06-10T01:05:27.265Z,6.67
2019-06-10T01:07:53.122Z,7.53
2019-06-10T01:10:21.072Z,7.07
2019-06-10T01:12:46.884Z,9.43
2019-06-10T01:15:15.188Z,11.50
2019-06-10T01:17:41.746Z,11.40
2019-06-10T01:20:08.205Z,11.13
2019-06-10T01:22:34.083Z,11.67
2019-06-10T01:25:01.653Z,10.23
2019-06-10T01:27:27.666Z,12.30
2019-06-10T01:29:53.534Z,12.00
2019-06-10T01:32:21.532Z,8.53
2019-06-10T01:34:47.123Z,9.30
2019-06-10T01:37:14.453Z,7.33
2019-06-10T01:39:41.232Z,7.30
2019-06-10T01:42:08.220Z,6.77
2019-06-10T01:44:34.074Z,8.00
2019-06-10T01:47:01.011Z,6.77
2019-06-10T01:49:26.960Z,6.97
2019-06-10T01:51:52.799Z,8.40
2019-06-10T01:54:21.146Z,7.93
2019-06-10T01:56:46.395Z,6.77
2019-06-10T01:59:13.793Z,6.63
2019-06-10T02:01:44.922Z,6.63
2019-06-10T02:04:13.078Z,6.50
2019-06-10T02:06:40.599Z,7.73
2019-06-10T02:09:06.672Z,7.67
2019-06-10T02:11:35.929Z,7.83
2019-06-10T02:14:03.847Z,7.10
2019-06-10T02:16:32.384Z,7.40
2019-06-10T02:19:00.792Z,7.47
2019-06-10T02:21:25.197Z,7.80
2019-06-10T02:23:52.054Z,8.77
2019-06-10T02:26:19.902Z,8.20
2019-06-10T02:28:46.023Z,8.10
2019-06-10T02:31:15.111Z,8.23
2019-06-10T02:33:42.080Z,10.20
2019-06-10T02:36:07.379Z,7.53
2019-06-10T02:38:39.061Z,9.23
2019-06-10T02:41:04.409Z,8.73
2019-06-10T02:43:33.322Z,7.80
2019-06-10T02:45:57.178Z,11.57
2019-06-10T02:48:30.152Z,8.77
2019-06-10T02:51:05.195Z,10.37
2019-06-10T02:53:35.704Z,8.43
2019-06-10T02:55:59.310Z,8.00
2019-06-10T02:58:31.473Z,9.20
2019-06-10T03:00:54.602Z,8.77
2019-06-10T03:03:31.657Z,8.30
2019-06-10T03:05:48.458Z,8.00
2019-06-10T03:08:16.078Z,8.67
2019-06-10T03:10:44.434Z,8.40
2019-06-10T03:13:09.844Z,8.20
2019-06-10T03:15:37.599Z,9.60
2019-06-10T03:18:03.464Z,10.13
2019-06-10T03:20:29.299Z,8.30
2019-06-10T03:22:55.170Z,8.77
2019-06-10T03:25:24.207Z,8.77
2019-06-10T03:27:48.762Z,8.63
2019-06-10T03:30:20.946Z,8.33
2019-06-10T03:32:46.602Z,9.00
2019-06-10T03:35:13.198Z,9.03
2019-06-10T03:37:38.439Z,8.50
2019-06-10T03:40:05.070Z,8.37
2019-06-10T03:42:32.480Z,8.90
2019-06-10T03:44:58.451Z,9.50
2019-06-10T03:47:25.892Z,9.07
2019-06-10T03:49:55.957Z,10.03
2019-06-10T03:52:22.469Z,8.77
2019-06-10T03:54:47.749Z,10.63
2019-06-10T03:57:13.597Z,9.33
2019-06-10T03:59:39.432Z,9.83
2019-06-10T04:02:05.271Z,11.47
2019-06-10T04:04:32.830Z,11.07
2019-06-10T04:06:58.764Z,10.03
2019-06-10T04:09:25.824Z,9.80
2019-06-10T04:11:53.256Z,9.30
2019-06-10T04:14:19.539Z,10.00
2019-06-10T04:16:45.409Z,8.97
2019-06-10T04:19:13.156Z,9.50
2019-06-10T04:21:39.284Z,10.60
2019-06-10T04:24:05.138Z,9.80
2019-06-10T04:26:32.735Z,10.23
2019-06-10T04:28:58.749Z,9.30
2019-06-10T04:31:25.447Z,8.73
2019-06-10T04:33:52.509Z,10.00
2019-06-10T04:36:18.415Z,9.23
2019-06-10T04:38:44.239Z,10.80
2019-06-10T04:41:12.395Z,10.00
2019-06-10T04:43:37.785Z,10.33
2019-06-10T04:46:03.635Z,10.63
2019-06-10T04:48:29.486Z,10.43
2019-06-10T04:50:55.332Z,10.23
2019-06-10T04:53:23.685Z,9.63
2019-06-10T04:55:48.920Z,10.40
2019-06-10T04:58:14.744Z,9.37
2019-06-10T05:00:42.766Z,10.63
2019-06-10T05:03:08.424Z,9.43
2019-06-10T05:05:34.279Z,10.83
2019-06-10T05:08:02.517Z,10.83
2019-06-10T05:10:28.374Z,10.83
2019-06-10T05:12:55.485Z,11.00
2019-06-10T05:15:24.317Z,9.50
2019-06-10T05:17:49.083Z,10.17
2019-06-10T05:20:15.043Z,10.40
2019-06-10T05:22:42.448Z,9.40
2019-06-10T05:25:08.561Z,9.20
2019-06-10T05:27:34.737Z,9.00
2019-06-10T05:30:02.385Z,9.63
2019-06-10T05:32:29.039Z,8.63
2019-06-10T05:34:55.035Z,10.07
2019-06-10T05:37:23.295Z,9.23
2019-06-10T05:39:48.639Z,9.60
2019-06-10T05:42:14.512Z,10.70
2019-06-10T05:44:40.338Z,9.83
2019-06-10T05:47:06.206Z,12.77
2019-06-10T05:49:34.278Z,11.07
2019-06-10T05:52:01.923Z,9.27
2019-06-10T05:54:28.990Z,12.37
2019-06-10T05:56:54.984Z,9.00
2019-06-10T05:59:23.035Z,9.27
2019-06-10T06:01:48.561Z,13.03
2019-06-10T06:04:14.431Z,9.17
2019-06-10T06:06:42.458Z,9.83
2019-06-10T06:09:08.020Z,11.70
2019-06-10T06:11:35.244Z,9.10
2019-06-10T06:14:02.687Z,9.77
2019-06-10T06:16:29.897Z,13.33
2019-06-10T06:18:56.568Z,10.80
2019-06-10T06:21:29.986Z,9.87
2019-06-10T06:23:52.596Z,8.93
2019-06-10T06:26:18.045Z,9.77
2019-06-10T06:28:43.858Z,9.73
2019-06-10T06:31:09.742Z,10.80
2019-06-10T06:33:37.976Z,9.50
2019-06-10T06:36:03.779Z,10.13
2019-06-10T06:38:31.431Z,9.47
2019-06-10T06:40:57.399Z,9.17
2019-06-10T06:43:23.255Z,9.20
2019-06-10T06:45:49.103Z,9.00
2019-06-10T06:48:14.960Z,9.00
2019-06-10T06:50:59.828Z,8.97
2019-06-10T06:53:21.324Z,9.40
2019-06-10T06:55:38.449Z,9.57
2019-06-10T06:58:04.793Z,10.73
2019-06-10T07:00:51.023Z,9.53
2019-06-10T07:03:03.079Z,8.93
2019-06-10T07:05:32.676Z,8.90
2019-06-10T07:08:02.437Z,7.67
2019-06-10T07:10:28.903Z,7.80
2019-06-10T07:12:56.648Z,7.70
2019-06-10T07:15:39.527Z,9.23
2019-06-10T07:18:05.973Z,9.77
2019-06-10T07:20:33.253Z,7.83
2019-06-10T07:22:59.544Z,8.00
2019-06-10T07:25:25.393Z,8.23
2019-06-10T07:27:52.728Z,8.17
2019-06-10T07:30:18.711Z,8.63
2019-06-10T07:32:47.335Z,8.17
2019-06-10T07:35:12.985Z,8.13
2019-06-10T07:37:39.446Z,9.33
2019-06-10T07:40:05.474Z,7.77
2019-06-10T07:42:33.238Z,8.50
2019-06-10T07:44:59.067Z,7.80
2019-06-10T07:47:24.917Z,8.60
2019-06-10T07:49:52.310Z,7.13
2019-06-10T07:52:20.012Z,7.10
2019-06-10T07:54:46.098Z,7.20
2019-06-10T07:57:12.965Z,8.90
2019-06-10T07:59:39.556Z,7.53
2019-06-10T08:02:05.534Z,8.73
2019-06-10T08:04:33.609Z,6.07
2019-06-10T08:06:59.752Z,8.70
2019-06-10T08:09:25.598Z,6.83
2019-06-10T08:11:53.285Z,7.80
2019-06-10T08:14:19.466Z,7.70
2019-06-10T08:16:46.722Z,7.50
2019-06-10T08:19:35.007Z,7.73
2019-06-10T08:21:43.315Z,7.07
2019-06-10T08:24:08.305Z,9.20
2019-06-10T08:26:35.358Z,8.17
2019-06-10T08:29:04.405Z,7.07
2019-06-10T08:31:29.799Z,7.90
2019-06-10T08:33:55.621Z,7.60
2019-06-10T08:36:22.380Z,7.67
2019-06-10T08:38:48.853Z,7.50
2019-06-10T08:41:14.788Z,6.50
2019-06-10T08:43:43.515Z,7.80
2019-06-10T08:46:08.352Z,6.60
2019-06-10T08:48:34.191Z,7.90
2019-06-10T08:51:00.338Z,7.17
2019-06-10T08:53:26.213Z,7.13
2019-06-10T08:55:53.650Z,7.00
2019-06-10T08:58:22.371Z,7.50
2019-06-10T09:00:49.344Z,8.17
2019-06-10T09:03:15.405Z,7.03
2019-06-10T09:05:46.057Z,5.80
2019-06-10T09:08:08.976Z,6.20
2019-06-10T09:10:34.946Z,7.33
2019-06-10T09:13:02.780Z,6.83
2019-06-10T09:15:28.539Z,7.00
2019-06-10T09:17:56.156Z,8.20
2019-06-10T09:20:23.142Z,9.23
2019-06-10T09:23:10.875Z,10.17
2019-06-10T09:25:17.170Z,9.33
2019-06-10T09:27:46.606Z,6.33
2019-06-10T09:30:13.465Z,5.90
2019-06-10T09:32:39.818Z,6.80
2019-06-10T09:35:08.201Z,8.30
2019-06-10T09:37:34.043Z,5.67
2019-06-10T09:40:00.057Z,6.43
2019-06-10T09:42:25.952Z,6.87
2019-06-10T09:44:55.393Z,6.00
2019-06-10T09:47:22.647Z,6.50
2019-06-10T09:49:50.478Z,8.23
2019-06-10T09:52:16.430Z,7.80
2019-06-10T09:54:46.950Z,6.17
2019-06-10T09:57:12.556Z,6.20
2019-06-10T09:59:38.069Z,6.77
2019-06-10T10:02:07.133Z,5.83
2019-06-10T10:04:32.638Z,6.40
2019-06-10T10:06:58.820Z,6.93
2019-06-10T10:09:24.705Z,5.80
2019-06-10T10:11:55.049Z,5.80
2019-06-10T10:14:18.416Z,5.80
2019-06-10T10:16:49.332Z,6.17
2019-06-10T10:19:13.075Z,8.97
2019-06-10T10:21:41.314Z,8.70
2019-06-10T10:24:11.474Z,6.30
2019-06-10T10:26:34.817Z,10.03
2019-06-10T10:29:02.762Z,5.17
2019-06-10T10:31:32.439Z,6.87
2019-06-10T10:33:57.243Z,9.83
2019-06-10T10:36:23.101Z,6.57
2019-06-10T10:38:49.040Z,7.70
2019-06-10T10:41:14.901Z,6.50
2019-06-10T10:43:42.961Z,5.53
2019-06-10T10:46:09.283Z,7.93
2019-06-10T10:48:35.319Z,5.60
2019-06-10T10:51:03.607Z,6.20
2019-06-10T10:53:28.960Z,4.80
2019-06-10T10:55:54.828Z,5.40
2019-06-10T10:58:22.523Z,5.30
2019-06-10T11:00:50.414Z,5.30
2019-06-10T11:03:16.178Z,5.40
2019-06-10T11:05:44.854Z,10.40
2019-06-10T11:08:13.124Z,4.63
2019-06-10T11:10:37.945Z,5.43
2019-06-10T11:13:06.706Z,6.63
2019-06-10T11:15:33.874Z,6.47
2019-06-10T11:18:01.435Z,6.57
2019-06-10T11:20:28.393Z,5.90
2019-06-10T11:22:54.401Z,8.33
2019-06-10T11:25:20.376Z,6.20
2019-06-10T11:27:46.407Z,7.10
2019-06-10T11:30:12.531Z,5.83
2019-06-10T11:32:38.430Z,6.50
2019-06-10T11:35:04.389Z,6.33
2019-06-10T11:37:30.226Z,5.20
2019-06-10T11:39:56.535Z,7.33
2019-06-10T11:42:24.370Z,5.20
2019-06-10T11:44:51.342Z,4.30
2019-06-10T11:47:18.315Z,5.03
2019-06-10T11:49:44.164Z,6.47
2019-06-10T11:52:12.449Z,10.23
2019-06-10T11:54:51.705Z,5.80
2019-06-10T11:57:06.139Z,6.20
2019-06-10T11:59:32.767Z,5.73
2019-06-10T12:02:00.340Z,5.83
2019-06-10T12:04:26.529Z,5.07
2019-06-10T12:06:52.652Z,6.20
2019-06-10T12:09:23.547Z,5.60
2019-06-10T12:11:49.392Z,6.77
2019-06-10T12:14:15.225Z,7.07
2019-06-10T12:19:08.855Z,4.80
2019-06-10T12:21:34.758Z,4.80
2019-06-10T12:24:02.653Z,5.40
2019-06-10T12:26:28.324Z,5.93
2019-06-10T12:28:56.263Z,9.03
2019-06-10T12:31:23.190Z,4.67
2019-06-10T12:33:50.587Z,4.03
2019-06-10T12:36:17.697Z,4.17
2019-06-10T12:38:43.779Z,5.43
2019-06-10T12:41:11.124Z,4.93
2019-06-10T12:43:37.663Z,7.77
2019-06-10T12:46:03.627Z,7.00
2019-06-10T12:48:29.484Z,5.47
2019-06-10T12:50:57.110Z,7.00
2019-06-10T12:53:23.142Z,7.13
2019-06-10T12:55:48.969Z,5.20
2019-06-10T12:58:14.824Z,5.60
2019-06-10T13:00:46.731Z,5.33
2019-06-10T13:03:13.552Z,10.13
2019-06-10T13:05:42.360Z,4.83
2019-06-10T13:08:08.088Z,6.53
2019-06-10T13:10:36.568Z,5.70
2019-06-10T13:13:06.633Z,6.10
2019-06-10T13:15:32.794Z,5.20
2019-06-10T13:17:58.194Z,5.27
2019-06-10T13:20:24.086Z,6.70
2019-06-10T13:22:49.905Z,6.23
2019-06-10T13:25:15.767Z,10.50
2019-06-10T13:27:42.819Z,6.67
2019-06-10T13:30:09.236Z,7.53
2019-06-10T13:32:35.098Z,8.37
2019-06-10T13:35:01.026Z,8.70
2019-06-10T13:37:26.898Z,6.67
2019-06-10T13:39:52.744Z,6.10
2019-06-10T13:42:18.600Z,5.70
2019-06-10T13:44:44.441Z,5.30
2019-06-10T13:47:14.613Z,8.23
2019-06-10T13:49:38.083Z,6.00
2019-06-10T13:52:09.127Z,6.53
2019-06-10T13:54:31.736Z,8.50
2019-06-10T13:56:59.048Z,5.97
2019-06-10T13:59:25.068Z,5.80
2019-06-10T14:01:53.163Z,6.57
2019-06-10T14:04:25.173Z,5.80
2019-06-10T14:06:50.353Z,6.83
2019-06-10T14:09:16.653Z,6.10
2019-06-10T14:11:42.481Z,7.90
2019-06-10T14:14:09.527Z,5.60
2019-06-10T14:16:35.381Z,6.17
2019-06-10T14:19:02.129Z,6.77
2019-06-10T14:21:29.126Z,6.50
2019-06-10T14:23:54.979Z,7.00
2019-06-10T14:26:36.164Z,6.63
2019-06-10T14:28:48.597Z,8.90
2019-06-10T14:31:33.721Z,5.57
2019-06-10T14:33:42.897Z,6.87
2019-06-10T14:36:10.353Z,6.27
2019-06-10T14:38:36.620Z,9.33
2019-06-10T14:41:03.322Z,10.10
2019-06-10T14:43:33.000Z,9.80
2019-06-10T14:45:58.083Z,8.30
2019-06-10T14:48:23.927Z,8.27
2019-06-10T14:50:49.776Z,7.63
2019-06-10T14:53:16.893Z,6.47
2019-06-10T14:55:43.308Z,7.60
2019-06-10T14:58:10.205Z,6.83
2019-06-10T15:00:37.140Z,7.30
2019-06-10T15:03:05.665Z,7.17
2019-06-10T15:05:32.381Z,7.07
2019-06-10T15:07:58.363Z,6.03
2019-06-10T15:10:24.206Z,8.60
2019-06-10T15:12:50.148Z,7.60
2019-06-10T15:15:17.405Z,10.10
2019-06-10T15:17:43.261Z,7.30
2019-06-10T15:20:09.635Z,6.20
2019-06-10T15:22:35.563Z,6.73
2019-06-10T15:25:03.301Z,6.70
2019-06-10T15:27:31.642Z,8.77
2019-06-10T15:29:57.106Z,8.10
2019-06-10T15:32:33.723Z,7.77
2019-06-10T15:34:52.468Z,6.80
2019-06-10T15:37:19.351Z,7.13
2019-06-10T15:39:46.225Z,10.10
2019-06-10T15:42:13.436Z,6.57
2019-06-10T15:44:49.669Z,7.27
2019-06-10T15:47:07.240Z,8.07
2019-06-10T15:49:33.212Z,9.97
2019-06-10T15:51:59.090Z,6.30
2019-06-10T15:54:25.493Z,6.43
2019-06-10T15:56:56.146Z,5.90
2019-06-10T15:59:19.823Z,7.00
2019-06-10T16:01:45.747Z,5.80
2019-06-10T16:04:14.158Z,6.23
2019-06-10T16:06:39.362Z,10.77
2019-06-10T16:09:06.422Z,6.97
2019-06-10T16:11:33.119Z,8.50
2019-06-10T16:13:59.101Z,8.97
2019-06-10T16:16:24.966Z,8.10
2019-06-10T16:18:52.784Z,9.87
2019-06-10T16:21:19.157Z,11.50
2019-06-10T16:23:46.289Z,7.07
2019-06-10T16:26:13.058Z,13.50
2019-06-10T16:28:39.973Z,24.83
2019-06-10T16:31:05.817Z,15.00
2019-06-10T16:33:33.462Z,17.63
2019-06-10T16:35:59.421Z,9.83
2019-06-10T16:38:26.930Z,4.63
2019-06-10T16:40:53.877Z,6.40
2019-06-10T16:43:19.796Z,5.60
2019-06-10T16:45:45.634Z,7.43
2019-06-10T16:48:13.070Z,4.77
2019-06-10T16:50:39.170Z,7.67
2019-06-10T16:53:05.023Z,6.60
2019-06-10T16:55:33.275Z,5.73
2019-06-10T16:57:59.774Z,4.40
2019-06-10T17:00:27.648Z,6.33
2019-06-10T17:02:53.610Z,5.00
2019-06-10T17:05:21.243Z,4.73
2019-06-10T17:07:47.270Z,5.13
2019-06-10T17:10:13.383Z,5.80
2019-06-10T17:12:39.361Z,6.00
2019-06-10T17:15:09.009Z,7.80
2019-06-10T17:17:35.616Z,4.90
2019-06-10T17:20:03.922Z,7.23
2019-06-10T17:22:30.956Z,5.63
2019-06-10T17:24:57.551Z,3.90
2019-06-10T17:27:24.936Z,6.70
2019-06-10T17:29:51.976Z,5.30
2019-06-10T17:32:18.032Z,5.10
2019-06-10T17:34:43.908Z,4.43
2019-06-10T17:37:09.781Z,4.90
2019-06-10T17:39:35.663Z,5.87
2019-06-10T17:42:01.549Z,5.40
2019-06-10T17:44:29.201Z,4.37
2019-06-10T17:46:55.212Z,5.20
2019-06-10T17:49:23.893Z,6.37
2019-06-10T17:51:48.966Z,5.50
2019-06-10T17:54:14.825Z,7.07
2019-06-10T17:56:42.625Z,9.27
2019-06-10T17:59:08.505Z,6.77
2019-06-10T18:01:35.683Z,6.87
2019-06-10T18:04:02.521Z,7.50
2019-06-10T18:06:29.700Z,6.70
2019-06-10T18:08:55.668Z,6.73
2019-06-10T18:11:23.385Z,5.67
2019-06-10T18:13:49.383Z,5.67
2019-06-10T18:16:15.265Z,6.97
2019-06-10T18:18:42.568Z,8.43
2019-06-10T18:21:08.517Z,7.70
2019-06-10T18:23:35.176Z,6.77
2019-06-10T18:26:03.276Z,7.20
2019-06-10T18:28:29.301Z,7.43
2019-06-10T18:30:55.242Z,8.97
2019-06-10T18:33:23.016Z,4.90
2019-06-10T18:35:48.911Z,4.97
2019-06-10T18:38:23.294Z,6.37
2019-06-10T18:40:49.279Z,5.43
2019-06-10T18:43:18.164Z,6.40
2019-06-10T18:45:43.112Z,7.97
2019-06-10T18:48:08.992Z,6.60
2019-06-10T18:50:36.694Z,5.97
2019-06-10T18:53:04.133Z,6.10
2019-06-10T18:55:30.870Z,4.83
2019-06-10T18:57:58.302Z,9.17
2019-06-10T19:00:25.901Z,5.77
2019-06-10T19:03:08.635Z,5.73
2019-06-10T19:05:22.284Z,4.93
2019-06-10T19:07:48.068Z,5.53
2019-06-10T19:10:14.334Z,9.70
2019-06-10T19:12:42.504Z,4.73
2019-06-10T19:15:08.935Z,5.93
2019-06-10T19:17:38.230Z,5.27
2019-06-10T19:20:06.828Z,4.97
2019-06-10T19:22:34.669Z,7.13
2019-06-10T19:25:03.489Z,5.50
2019-06-10T19:27:28.398Z,7.63
2019-06-10T19:29:55.021Z,5.13
2019-06-10T19:32:21.218Z,6.87
2019-06-10T19:34:48.484Z,8.70
2019-06-10T19:37:14.677Z,4.93
2019-06-10T19:39:49.294Z,5.97
2019-06-10T19:42:09.468Z,5.40
2019-06-10T19:44:36.972Z,7.60
2019-06-10T19:47:03.375Z,5.00
2019-06-10T19:49:29.334Z,4.57
2019-06-10T19:51:55.254Z,5.97
2019-06-10T19:54:21.161Z,6.30
2019-06-10T19:56:47.048Z,6.27
2019-06-10T19:59:12.952Z,4.80
2019-06-10T20:01:40.692Z,6.60
2019-06-10T20:04:06.694Z,4.63
2019-06-10T20:06:33.814Z,7.00
2019-06-10T20:08:59.752Z,6.50
2019-06-10T20:11:25.712Z,3.83
2019-06-10T20:13:53.154Z,4.53
2019-06-10T20:16:19.198Z,5.00
2019-06-10T20:18:47.635Z,4.97
2019-06-10T20:21:13.619Z,3.47
2019-06-10T20:23:39.487Z,7.07
2019-06-10T20:26:05.334Z,6.70
2019-06-10T20:28:32.207Z,3.37
2019-06-10T20:30:58.249Z,5.67
2019-06-10T20:33:28.811Z,4.73
2019-06-10T20:35:54.618Z,5.63
2019-06-10T20:38:22.311Z,5.23
2019-06-10T20:40:48.749Z,4.80
2019-06-10T20:43:14.632Z,5.50
2019-06-10T20:45:42.289Z,6.60
2019-06-10T20:48:08.212Z,3.73
2019-06-10T20:50:34.060Z,3.60
2019-06-10T20:53:11.945Z,3.90
2019-06-10T20:55:40.151Z,5.47
2019-06-10T20:58:03.327Z,5.47
2019-06-10T21:00:27.084Z,5.67
2019-06-10T21:02:53.742Z,8.23
2019-06-10T21:05:21.873Z,5.33
2019-06-10T21:07:48.887Z,7.20
2019-06-10T21:10:19.269Z,5.00
2019-06-10T21:12:47.738Z,8.23
2019-06-10T21:15:13.451Z,7.90
2019-06-10T21:17:40.872Z,4.50
2019-06-10T21:20:07.315Z,4.33
2019-06-10T21:22:33.156Z,5.23
2019-06-10T21:24:59.055Z,4.57
2019-06-10T21:27:24.897Z,3.77
2019-06-10T21:29:54.474Z,4.90
2019-06-10T21:32:18.554Z,4.53
2019-06-10T21:34:45.163Z,4.77
2019-06-10T21:37:12.241Z,3.60
2019-06-10T21:39:38.109Z,4.10
2019-06-10T21:42:03.961Z,4.27
2019-06-10T21:44:31.940Z,5.33
2019-06-10T21:46:57.631Z,4.23
2019-06-10T21:49:23.916Z,6.10
2019-06-10T21:51:51.189Z,4.80
2019-06-10T21:54:17.686Z,7.07
2019-06-10T21:56:44.542Z,5.20
2019-06-10T21:59:12.655Z,4.63
2019-06-10T22:01:38.533Z,7.27
2019-06-10T22:04:04.818Z,5.47
2019-06-10T22:06:32.965Z,4.10
2019-06-10T22:08:58.592Z,6.37
2019-06-10T22:11:24.454Z,4.27
2019-06-10T22:13:52.851Z,5.10
2019-06-10T22:16:18.080Z,5.87
2019-06-10T22:18:44.550Z,6.13
2019-06-10T22:21:10.465Z,5.47
2019-06-10T22:23:36.322Z,6.27
2019-06-10T22:26:02.819Z,5.30
2019-06-10T22:28:28.813Z,4.47
2019-06-10T22:31:14.589Z,4.73
2019-06-10T22:33:22.743Z,6.23
2019-06-10T22:35:49.541Z,7.50
2019-06-10T22:38:15.666Z,6.20
2019-06-10T22:40:42.672Z,6.60
2019-06-10T22:43:08.686Z,7.03
2019-06-10T22:45:34.519Z,5.23
2019-06-10T22:48:02.788Z,5.90
2019-06-10T22:50:28.131Z,8.53
2019-06-10T22:52:56.171Z,6.87
2019-06-10T22:55:21.767Z,6.53
2019-06-10T22:57:48.631Z,6.93
2019-06-10T23:00:14.885Z,4.87
2019-06-10T23:02:40.737Z,8.40
2019-06-10T23:05:06.982Z,6.13
2019-06-10T23:07:33.044Z,5.80
2019-06-10T23:09:59.151Z,7.93
2019-06-10T23:12:25.092Z,6.73
2019-06-10T23:14:53.237Z,7.50
2019-06-10T23:17:18.837Z,5.07
2019-06-10T23:19:44.702Z,5.70
2019-06-10T23:22:12.582Z,5.53
2019-06-10T23:24:38.277Z,5.80
2019-06-10T23:27:04.110Z,5.30
2019-06-10T23:29:32.106Z,5.57
2019-06-10T23:32:03.636Z,5.37
2019-06-10T23:34:25.431Z,8.43
2019-06-10T23:36:54.855Z,5.50
2019-06-10T23:39:19.052Z,4.50
2019-06-10T23:41:44.878Z,5.47
2019-06-10T23:44:12.181Z,5.40
2019-06-10T23:46:38.278Z,4.90
2019-06-10T23:49:04.641Z,8.03
2019-06-10T23:51:33.102Z,8.00
2019-06-10T23:54:00.344Z,5.30
2019-06-10T23:56:26.175Z,6.00
2019-06-10T23:58:52.858Z,5.87
